Time;durP1;ratioP1;P1;durP2;ratioP2;P2;SDS_P1;SDS_P2;PMS_P1;PMS_P2;Temp;Humidity;BMP_temperature;BMP_pressure;BME280_temperature;BME280_humidity;BME280_pressure;Samples;Min_cycle;Max_cycle;Signal;HPM_P1;HPM_P2
2022/12/15 00:38:42;;;;;;;4.80;4.60;;;16.60;56.80;;;;;;5090015;27;43459;-77
2022/12/15 00:41:10;;;;;;;5.07;4.87;;;16.60;56.80;;;;;;5071758;27;43415;-78
2022/12/15 00:43:38;;;;;;;4.70;4.50;;;16.60;56.90;;;;;;5088511;27;43770;-75
2022/12/15 00:48:53;;;;;;;4.93;4.73;;;16.50;56.90;;;;;;5092141;27;44071;-75
2022/12/15 00:51:20;;;;;;;4.77;4.57;;;16.50;57.20;;;;;;5091574;27;43424;-75
2022/12/15 01:21:31;;;;;;;8.43;5.27;;;16.60;57.00;;;;;;5087944;27;44357;-76
2022/12/15 01:23:59;;;;;;;5.17;4.77;;;16.50;57.10;;;;;;5091084;27;43442;-75
2022/12/15 01:26:27;;;;;;;5.80;5.30;;;16.50;57.00;;;;;;5089552;27;43432;-76
2022/12/15 01:28:55;;;;;;;5.40;5.00;;;16.50;57.00;;;;;;5070622;28;44552;-77
2022/12/15 01:31:23;;;;;;;5.60;5.10;;;16.50;57.00;;;;;;5091535;27;43751;-73
2022/12/15 01:33:53;;;;;;;5.40;5.00;;;16.50;57.00;;;;;;5091613;27;43386;-74
2022/12/15 01:36:21;;;;;;;5.50;5.20;;;16.50;57.10;;;;;;5090340;27;44069;-72
2022/12/15 01:38:50;;;;;;;5.70;5.30;;;16.50;57.20;;;;;;5070660;27;45716;-76
2022/12/15 01:41:20;;;;;;;4.90;4.70;;;16.50;57.50;;;;;;5069973;28;44971;-71
2022/12/15 01:43:48;;;;;;;5.30;5.00;;;16.50;57.40;;;;;;5090599;27;43394;-76
2022/12/15 01:46:17;;;;;;;5.17;4.90;;;16.60;57.70;;;;;;5092992;27;43418;-74
2022/12/15 01:48:47;;;;;;;5.10;4.90;;;16.60;56.80;;;;;;5088383;27;44781;-77
2022/12/15 01:51:18;;;;;;;5.27;5.03;;;16.60;56.90;;;;;;5070537;27;44764;-76
2022/12/15 01:53:50;;;;;;;5.60;5.30;;;16.60;57.00;;;;;;5071377;27;43764;-77
2022/12/15 01:56:19;;;;;;;5.50;5.10;;;16.50;57.10;;;;;;5087321;27;43362;-76
2022/12/15 01:58:48;;;;;;;4.90;4.70;;;16.50;57.00;;;;;;5089389;27;44033;-76
2022/12/15 02:01:16;;;;;;;5.20;5.00;;;16.50;56.90;;;;;;5062957;28;45040;-71
2022/12/15 02:03:45;;;;;;;5.47;5.27;;;16.50;57.00;;;;;;5082115;27;43520;-74
2022/12/15 02:06:13;;;;;;;5.90;5.60;;;16.50;57.00;;;;;;5086586;27;43424;-71
2022/12/15 02:08:41;;;;;;;5.73;5.43;;;16.50;57.00;;;;;;5089182;27;43920;-70
2022/12/15 02:11:19;;;;;;;5.50;5.30;;;16.50;57.10;;;;;;5067833;28;44638;-69
2022/12/15 02:13:50;;;;;;;5.57;5.27;;;16.40;57.10;;;;;;5083864;27;44704;-71
2022/12/15 02:16:21;;;;;;;5.90;5.50;;;16.40;57.70;;;;;;5087096;27;43410;-71
2022/12/15 02:18:53;;;;;;;5.73;5.43;;;16.50;57.20;;;;;;5084586;27;44023;-70
2022/12/15 02:21:23;;;;;;;5.60;5.30;;;16.40;57.10;;;;;;5083766;27;43411;-71
2022/12/15 02:24:33;;;;;;;6.00;5.80;;;16.50;57.30;;;;;;5086411;27;43448;-72
2022/12/15 02:27:25;;;;;;;6.10;5.80;;;16.40;57.10;;;;;;5056323;27;44336;-72
2022/12/15 02:30:12;;;;;;;5.33;5.13;;;16.40;57.40;;;;;;5066735;27;45372;-70
2022/12/15 02:32:43;;;;;;;5.80;5.43;;;16.50;57.50;;;;;;5083694;27;43892;-70
2022/12/15 02:35:13;;;;;;;5.50;5.30;;;16.50;57.40;;;;;;5086082;27;43452;-70
2022/12/15 02:37:41;;;;;;;6.00;5.63;;;16.60;56.90;;;;;;5085351;27;43445;-71
2022/12/15 02:40:10;;;;;;;5.10;4.90;;;16.60;56.80;;;;;;5067667;27;45406;-71
2022/12/15 02:42:42;;;;;;;5.40;5.20;;;16.60;56.80;;;;;;5086394;27;43453;-71
2022/12/15 02:45:12;;;;;;;5.57;5.37;;;16.60;57.10;;;;;;5084540;27;43422;-73
2022/12/15 02:47:44;;;;;;;5.50;5.20;;;16.50;56.90;;;;;;5079366;27;43515;-73
2022/12/15 02:50:21;;;;;;;5.87;5.57;;;16.50;56.80;;;;;;5066105;27;45449;-71
2022/12/15 02:52:55;;;;;;;5.67;5.37;;;16.50;56.90;;;;;;5083339;27;43576;-70
2022/12/15 02:55:26;;;;;;;5.43;5.23;;;16.50;56.90;;;;;;5066903;27;44035;-70
2022/12/15 02:57:55;;;;;;;5.30;5.10;;;16.50;57.00;;;;;;5084017;27;43928;-72
2022/12/15 03:00:24;;;;;;;5.30;5.10;;;16.50;57.10;;;;;;5081696;27;43849;-72
2022/12/15 03:02:53;;;;;;;5.60;5.40;;;16.40;57.70;;;;;;5086585;27;43873;-70
2022/12/15 03:05:22;;;;;;;5.27;5.10;;;16.50;57.00;;;;;;5085592;27;43487;-70
2022/12/15 03:07:50;;;;;;;5.17;5.03;;;16.50;57.10;;;;;;5086310;27;43472;-71
2022/12/15 03:10:18;;;;;;;5.60;5.33;;;16.40;57.00;;;;;;5065625;27;45675;-71
2022/12/15 03:12:46;;;;;;;5.47;5.27;;;16.40;57.00;;;;;;5085241;27;43544;-70
2022/12/15 03:15:14;;;;;;;5.70;5.50;;;16.40;57.10;;;;;;5083829;27;44239;-71
2022/12/15 03:17:43;;;;;;;5.50;5.30;;;16.40;57.10;;;;;;5082707;27;43569;-72
2022/12/15 03:20:11;;;;;;;5.90;5.50;;;16.40;57.40;;;;;;5085154;27;43889;-71
2022/12/15 03:22:39;;;;;;;5.93;5.63;;;16.50;57.40;;;;;;5081900;27;43490;-70
2022/12/15 03:25:08;;;;;;;5.40;5.20;;;16.50;57.00;;;;;;5085554;27;43408;-73
2022/12/15 03:27:37;;;;;;;6.20;5.90;;;16.60;56.80;;;;;;5067277;28;43638;-69
2022/12/15 03:30:06;;;;;;;5.73;5.53;;;16.60;56.80;;;;;;5084876;27;44127;-71
2022/12/15 03:32:34;;;;;;;5.67;5.43;;;16.50;56.80;;;;;;5086176;27;44071;-73
2022/12/15 03:35:04;;;;;;;6.00;5.70;;;16.50;57.00;;;;;;5085591;27;43504;-72
2022/12/15 03:37:32;;;;;;;5.53;5.33;;;16.50;56.90;;;;;;5088568;27;43496;-70
2022/12/15 03:40:00;;;;;;;5.80;5.60;;;16.50;56.90;;;;;;5072409;27;45936;-70
2022/12/15 03:45:14;;;;;;;5.57;5.37;;;16.50;57.00;;;;;;5067610;27;43440;-72
2022/12/15 03:47:42;;;;;;;6.20;5.90;;;16.50;57.00;;;;;;5090803;27;43460;-70
2022/12/15 03:50:12;;;;;;;6.10;5.70;;;16.40;57.00;;;;;;5069465;28;45926;-71
2022/12/15 03:52:40;;;;;;;5.60;5.40;;;16.40;57.10;;;;;;5087038;27;43493;-73
2022/12/15 03:55:09;;;;;;;5.70;5.50;;;16.40;57.00;;;;;;5087106;27;43491;-73
2022/12/15 03:57:37;;;;;;;6.30;6.00;;;16.40;57.00;;;;;;5082729;27;44117;-70
2022/12/15 04:00:06;;;;;;;5.70;5.50;;;16.40;57.00;;;;;;5087914;27;43874;-71
2022/12/15 04:02:39;;;;;;;5.53;5.33;;;16.40;57.00;;;;;;5084671;27;43440;-71
2022/12/15 04:05:13;;;;;;;6.03;5.73;;;16.40;57.10;;;;;;5068283;27;44079;-72
2022/12/15 04:07:41;;;;;;;5.90;5.60;;;16.40;57.20;;;;;;5086593;27;43497;-70
2022/12/15 04:10:10;;;;;;;5.63;5.33;;;16.40;57.40;;;;;;5086121;27;43942;-70
2022/12/15 04:12:38;;;;;;;5.67;5.47;;;16.50;57.30;;;;;;5069313;27;44305;-70
2022/12/15 04:15:07;;;;;;;5.63;5.43;;;16.50;57.00;;;;;;5088813;27;43485;-70
2022/12/15 04:17:35;;;;;;;5.57;5.37;;;16.50;56.80;;;;;;5069780;28;43900;-71
2022/12/15 04:20:08;;;;;;;5.50;5.30;;;16.50;56.90;;;;;;5087085;27;43971;-70
2022/12/15 04:22:38;;;;;;;5.37;5.17;;;16.50;56.90;;;;;;5086194;27;44487;-71
2022/12/15 05:31:51;;;;;;;5.03;4.83;;;16.50;56.80;;;;;;5067727;28;43468;-71
2022/12/15 05:34:20;;;;;;;5.20;5.00;;;16.50;56.70;;;;;;5087657;27;43494;-71
2022/12/15 05:36:48;;;;;;;5.17;4.97;;;16.50;56.80;;;;;;5084021;27;43911;-71
2022/12/15 05:39:16;;;;;;;4.97;4.77;;;16.50;56.70;;;;;;5086664;27;43516;-71
2022/12/15 05:41:44;;;;;;;5.20;5.00;;;16.50;56.70;;;;;;5088239;27;43413;-71
2022/12/15 05:44:14;;;;;;;5.00;4.80;;;16.50;56.70;;;;;;5084839;27;44366;-70
2022/12/15 05:46:41;;;;;;;4.93;4.73;;;16.50;57.30;;;;;;5085570;27;44199;-72
2022/12/15 05:49:11;;;;;;;5.30;5.10;;;16.50;56.80;;;;;;5086146;27;43943;-72
2022/12/15 05:51:39;;;;;;;5.03;4.73;;;16.50;56.70;;;;;;5087552;27;43951;-71
2022/12/15 05:54:07;;;;;;;4.73;4.60;;;16.50;56.70;;;;;;5067451;27;43684;-69
2022/12/15 05:56:35;;;;;;;5.30;5.10;;;16.50;56.80;;;;;;5082912;27;45099;-70
2022/12/15 05:59:03;;;;;;;4.50;4.40;;;16.50;57.40;;;;;;5088103;27;44011;-71
2022/12/15 06:01:34;;;;;;;4.47;4.37;;;16.40;56.70;;;;;;5085124;27;43426;-71
2022/12/15 06:04:02;;;;;;;4.73;4.60;;;16.40;56.80;;;;;;5064826;27;43879;-71
2022/12/15 06:06:30;;;;;;;5.20;5.00;;;16.40;57.10;;;;;;5065519;27;46068;-71
2022/12/15 06:08:58;;;;;;;5.27;5.07;;;16.50;57.10;;;;;;5084739;27;43484;-72
2022/12/15 06:11:26;;;;;;;4.93;4.73;;;16.50;56.70;;;;;;5068263;27;43429;-69
2022/12/15 06:13:55;;;;;;;4.60;4.40;;;16.60;56.50;;;;;;5086671;27;43676;-71
2022/12/15 06:16:23;;;;;;;4.83;4.70;;;16.60;56.40;;;;;;5085552;27;43907;-70
2022/12/15 06:18:54;;;;;;;4.70;4.50;;;16.60;56.50;;;;;;5082017;27;43458;-71
2022/12/15 06:21:23;;;;;;;5.37;5.17;;;16.50;56.60;;;;;;5062862;28;43503;-72
2022/12/15 06:23:51;;;;;;;4.97;4.77;;;16.50;56.60;;;;;;5066992;27;43598;-69
2022/12/15 06:26:20;;;;;;;5.17;4.97;;;16.50;56.60;;;;;;5066678;27;46083;-71
2022/12/15 06:28:48;;;;;;;4.77;4.57;;;16.50;56.60;;;;;;5065966;27;44716;-72
2022/12/15 06:31:18;;;;;;;4.93;4.73;;;16.50;56.70;;;;;;5084889;27;43455;-71
2022/12/15 06:33:46;;;;;;;4.80;4.70;;;16.40;56.60;;;;;;5086177;27;43425;-70
2022/12/15 06:36:15;;;;;;;4.60;4.50;;;16.40;56.60;;;;;;5087737;27;44069;-71
2022/12/15 06:38:43;;;;;;;4.90;4.70;;;16.40;56.80;;;;;;5083838;27;43507;-71
2022/12/15 06:41:17;;;;;;;5.10;4.90;;;16.40;56.70;;;;;;5081286;27;43885;-69
2022/12/15 06:43:49;;;;;;;5.00;4.80;;;16.40;56.70;;;;;;5085225;27;43465;-71
2022/12/15 06:46:17;;;;;;;4.97;4.77;;;16.40;56.70;;;;;;5085342;27;43919;-72
2022/12/15 06:48:45;;;;;;;4.50;4.40;;;16.40;56.70;;;;;;5085760;27;43434;-72
2022/12/15 06:51:15;;;;;;;4.70;4.50;;;16.40;56.70;;;;;;5064228;27;43486;-73
2022/12/15 06:53:47;;;;;;;4.73;4.63;;;16.40;56.70;;;;;;5086742;27;43518;-71
2022/12/15 06:56:17;;;;;;;4.60;4.40;;;16.40;56.80;;;;;;5085348;27;43626;-71
2022/12/15 06:58:46;;;;;;;5.07;4.87;;;16.40;56.70;;;;;;5085539;27;43424;-69
2022/12/15 07:01:14;;;;;;;4.50;4.40;;;16.40;56.70;;;;;;5085509;27;43422;-72
2022/12/15 07:03:42;;;;;;;5.17;4.97;;;16.40;56.60;;;;;;5085784;27;43525;-72
2022/12/15 07:06:11;;;;;;;4.67;4.47;;;16.40;56.60;;;;;;5086390;27;43710;-71
2022/12/15 07:08:41;;;;;;;4.90;4.70;;;16.50;56.70;;;;;;5088797;27;43523;-70
2022/12/15 07:11:11;;;;;;;4.83;4.67;;;16.40;56.80;;;;;;5087394;27;43445;-71
2022/12/15 07:13:39;;;;;;;4.70;4.50;;;16.50;57.00;;;;;;5066210;28;43534;-70
2022/12/15 07:16:07;;;;;;;4.83;4.73;;;16.50;56.90;;;;;;5088990;27;43854;-73
2022/12/15 07:18:35;;;;;;;5.33;5.13;;;16.60;56.60;;;;;;5085876;27;43997;-70
2022/12/15 07:21:04;;;;;;;5.17;4.97;;;16.60;56.20;;;;;;5086958;27;43587;-71
2022/12/15 07:23:32;;;;;;;4.80;4.60;;;16.60;56.20;;;;;;5086727;27;43641;-72
2022/12/15 07:26:22;;;;;;;4.37;4.27;;;16.60;56.20;;;;;;5084536;27;44086;-69
2022/12/15 07:28:50;;;;;;;4.50;4.40;;;16.60;56.60;;;;;;5067345;27;43458;-70
2022/12/15 07:31:18;;;;;;;4.80;4.70;;;16.60;56.40;;;;;;5090306;27;44185;-71
2022/12/15 07:33:47;;;;;;;4.90;4.70;;;16.50;56.30;;;;;;5070318;28;44076;-71
2022/12/15 07:36:15;;;;;;;4.50;4.40;;;16.50;56.40;;;;;;5086165;27;44004;-71
2022/12/15 07:38:44;;;;;;;4.70;4.50;;;16.50;56.50;;;;;;5071492;28;44997;-72
2022/12/15 07:41:18;;;;;;;4.37;4.27;;;16.50;56.50;;;;;;5088074;27;43469;-70
2022/12/15 07:43:47;;;;;;;4.50;4.40;;;16.50;56.50;;;;;;5087126;27;44134;-71
2022/12/15 07:46:16;;;;;;;4.70;4.50;;;16.40;56.60;;;;;;5089466;27;43592;-71
2022/12/15 07:48:45;;;;;;;4.53;4.43;;;16.40;56.50;;;;;;5087721;27;43685;-70
2022/12/15 07:51:18;;;;;;;5.00;4.70;;;16.40;56.60;;;;;;5068022;27;43421;-71
2022/12/15 07:53:48;;;;;;;4.50;4.30;;;16.40;56.60;;;;;;5069901;28;43470;-71
2022/12/15 07:56:16;;;;;;;4.70;4.50;;;16.40;56.60;;;;;;5070106;27;45721;-70
2022/12/15 07:58:44;;;;;;;4.40;4.30;;;16.40;56.60;;;;;;5082665;27;43534;-70
2022/12/15 08:01:13;;;;;;;4.30;4.20;;;16.40;56.80;;;;;;5087848;27;43453;-71
2022/12/15 08:03:42;;;;;;;4.47;4.37;;;16.40;56.70;;;;;;5087593;27;44070;-70
2022/12/15 08:06:11;;;;;;;4.17;4.07;;;16.40;56.60;;;;;;5087333;27;43878;-70
2022/12/15 08:08:39;;;;;;;4.57;4.37;;;16.40;56.60;;;;;;5086768;27;43854;-71
2022/12/15 08:11:08;;;;;;;4.10;4.00;;;16.40;56.70;;;;;;5073464;27;43508;-70
2022/12/15 08:13:36;;;;;;;4.87;4.67;;;16.40;56.70;;;;;;5075546;27;43950;-70
2022/12/15 08:16:26;;;;;;;4.83;4.63;;;16.40;56.70;;;;;;5087297;27;43847;-73
2022/12/15 08:18:55;;;;;;;4.63;4.53;;;16.40;57.00;;;;;;5083210;27;43476;-70
2022/12/15 08:21:23;;;;;;;4.33;4.13;;;16.40;57.20;;;;;;5089353;27;43497;-73
2022/12/15 08:23:51;;;;;;;4.27;4.17;;;16.50;57.00;;;;;;5086219;27;43977;-70
2022/12/15 08:26:19;;;;;;;4.50;4.40;;;16.50;56.60;;;;;;5086840;27;44051;-71
2022/12/15 08:28:57;;;;;;;3.83;3.73;;;16.60;56.40;;;;;;5086854;27;43551;-70
2022/12/15 08:31:46;;;;;;;4.53;4.33;;;16.50;56.40;;;;;;5083848;27;43462;-71
2022/12/15 08:34:14;;;;;;;4.17;3.87;;;16.50;56.50;;;;;;5086816;27;43425;-71
2022/12/15 08:36:42;;;;;;;4.70;4.50;;;16.50;56.80;;;;;;5085950;27;43892;-70
2022/12/15 08:39:10;;;;;;;4.80;4.53;;;16.50;56.60;;;;;;5085809;27;44045;-71
2022/12/15 08:41:39;;;;;;;5.47;5.07;;;16.50;56.60;;;;;;5083694;27;43456;-71
2022/12/15 08:44:08;;;;;;;7.27;6.13;;;16.50;56.60;;;;;;5087993;27;43448;-72
2022/12/15 08:46:36;;;;;;;10.57;7.00;;;16.50;56.70;;;;;;5087752;27;44554;-72
2022/12/15 08:49:05;;;;;;;9.10;5.70;;;16.40;56.60;;;;;;5086266;27;43480;-72
2022/12/15 08:51:33;;;;;;;9.87;7.00;;;16.40;56.80;;;;;;5085634;27;44376;-71
2022/12/15 08:54:01;;;;;;;10.37;6.67;;;16.40;56.90;;;;;;5085612;27;43545;-71
2022/12/15 08:56:29;;;;;;;17.60;8.67;;;16.40;56.80;;;;;;5088153;27;44256;-71
2022/12/15 08:58:58;;;;;;;18.43;8.63;;;16.40;56.80;;;;;;5068917;27;43740;-69
2022/12/15 09:01:27;;;;;;;19.23;9.47;;;16.40;56.80;;;;;;5086320;27;43959;-71
2022/12/15 09:03:55;;;;;;;17.00;9.00;;;16.40;56.80;;;;;;5086546;27;43484;-72
2022/12/15 09:06:26;;;;;;;17.80;9.53;;;16.40;56.80;;;;;;5086103;27;43981;-71
2022/12/15 09:08:55;;;;;;;20.10;10.10;;;16.40;57.10;;;;;;5091936;27;43859;-71
2022/12/15 09:11:23;;;;;;;18.97;10.17;;;16.40;57.30;;;;;;5084110;27;44196;-70
2022/12/15 09:13:51;;;;;;;19.93;10.27;;;16.50;57.30;;;;;;5087387;27;44060;-74
2022/12/15 09:16:19;;;;;;;20.80;10.97;;;16.50;56.90;;;;;;5084888;27;43608;-70
2022/12/15 09:18:48;;;;;;;19.33;10.40;;;16.60;56.70;;;;;;5071973;28;44639;-71
2022/12/15 09:21:16;;;;;;;21.93;10.10;;;16.60;56.60;;;;;;5086981;27;43424;-71
2022/12/15 09:23:47;;;;;;;21.00;11.07;;;16.60;56.60;;;;;;5071263;27;43563;-72
2022/12/15 09:26:15;;;;;;;23.10;11.23;;;16.50;56.90;;;;;;5085494;27;44095;-71
2022/12/15 09:28:43;;;;;;;23.23;10.93;;;16.50;56.80;;;;;;5067121;27;44742;-71
2022/12/15 09:31:19;;;;;;;22.20;10.63;;;16.50;56.70;;;;;;5087525;27;43442;-70
2022/12/15 09:33:47;;;;;;;24.47;11.27;;;16.50;56.80;;;;;;5066571;28;43511;-71
2022/12/15 09:36:15;;;;;;;24.93;11.03;;;16.50;56.90;;;;;;5082938;27;43622;-71
2022/12/15 09:38:43;;;;;;;23.10;11.77;;;16.50;56.90;;;;;;5068317;28;44610;-71
2022/12/15 09:41:20;;;;;;;20.53;10.07;;;16.40;56.80;;;;;;5067536;28;43889;-70
2022/12/15 09:43:52;;;;;;;21.13;10.60;;;16.40;56.90;;;;;;5084828;27;43466;-71
2022/12/15 09:46:26;;;;;;;23.07;11.27;;;16.40;56.80;;;;;;5085056;27;44049;-70
2022/12/15 09:48:54;;;;;;;22.27;11.33;;;16.40;56.80;;;;;;5086730;27;43452;-72
2022/12/15 09:51:30;;;;;;;24.03;11.03;;;16.40;56.80;;;;;;5086277;27;43334;-70
2022/12/15 09:53:58;;;;;;;21.90;11.00;;;16.40;56.90;;;;;;5088334;27;43439;-71
2022/12/15 09:56:34;;;;;;;22.63;11.23;;;16.40;57.00;;;;;;5086947;28;43902;-70
2022/12/15 09:59:05;;;;;;;21.87;10.83;;;16.40;57.20;;;;;;5087087;28;44046;-70
2022/12/15 10:01:36;;;;;;;21.30;10.63;;;16.40;57.40;;;;;;5087055;28;43985;-69
2022/12/15 10:04:06;;;;;;;20.53;10.87;;;16.50;57.10;;;;;;5087504;27;43485;-71
2022/12/15 10:06:35;;;;;;;18.63;10.50;;;16.50;56.90;;;;;;5083012;27;43873;-71
2022/12/15 10:09:09;;;;;;;19.57;10.73;;;16.50;56.80;;;;;;5087696;27;44162;-70
2022/12/15 10:11:44;;;;;;;17.83;9.87;;;16.50;56.90;;;;;;5087316;27;43559;-72
2022/12/15 10:14:37;;;;;;;18.50;9.60;;;16.50;56.90;;;;;;5066638;28;43443;-70
2022/12/15 10:17:07;;;;;;;17.00;10.27;;;16.50;57.10;;;;;;5084131;27;43948;-70
2022/12/15 10:19:39;;;;;;;20.50;10.27;;;16.50;57.00;;;;;;5066375;28;45540;-71
2022/12/15 10:22:10;;;;;;;14.90;9.30;;;16.50;57.00;;;;;;5080976;27;43604;-70
2022/12/15 10:24:38;;;;;;;17.27;9.70;;;16.50;56.90;;;;;;5089009;27;43838;-70
2022/12/15 10:27:43;;;;;;;18.80;9.83;;;16.40;56.90;;;;;;5066705;27;45670;-72
2022/12/15 10:30:12;;;;;;;16.97;9.47;;;16.40;57.00;;;;;;5083603;27;44180;-70
2022/12/15 10:32:47;;;;;;;18.57;9.67;;;16.40;57.40;;;;;;5068929;27;43569;-71
2022/12/15 10:35:21;;;;;;;13.17;8.90;;;16.40;57.40;;;;;;5084495;27;44055;-71
2022/12/15 10:37:49;;;;;;;15.53;9.60;;;16.50;57.10;;;;;;5084969;27;43920;-71
2022/12/15 10:40:18;;;;;;;16.47;9.43;;;16.50;56.90;;;;;;5083200;27;44055;-70
2022/12/15 10:42:49;;;;;;;17.13;9.30;;;16.50;56.90;;;;;;5088076;27;44665;-71
2022/12/15 10:45:32;;;;;;;16.73;9.13;;;16.50;56.90;;;;;;5085812;27;43483;-72
2022/12/15 10:48:01;;;;;;;16.83;9.20;;;16.50;56.90;;;;;;5085904;27;43842;-69
2022/12/15 10:50:29;;;;;;;15.50;9.40;;;16.50;57.20;;;;;;5084755;27;43822;-71
2022/12/15 10:52:57;;;;;;;14.33;9.30;;;16.50;56.90;;;;;;5087416;27;43486;-70
2022/12/15 10:55:33;;;;;;;16.07;8.70;;;16.50;57.10;;;;;;5090890;27;43564;-70
2022/12/15 10:58:03;;;;;;;14.00;8.30;;;16.50;57.70;;;;;;5070911;28;45656;-71
2022/12/15 11:00:33;;;;;;;12.43;8.43;;;16.50;57.70;;;;;;5089269;27;43987;-70
2022/12/15 11:03:00;;;;;;;15.33;8.40;;;16.50;57.10;;;;;;5084786;28;44008;-72
2022/12/15 11:05:29;;;;;;;10.50;7.90;;;16.50;57.20;;;;;;5089886;28;43579;-70
2022/12/15 11:08:14;;;;;;;10.43;7.97;;;16.40;57.10;;;;;;5071370;28;46086;-70
2022/12/15 11:13:37;;;;;;;11.63;8.07;;;16.50;57.00;;;;;;5089014;28;43478;-70
2022/12/15 11:16:15;;;;;;;10.63;7.63;;;16.50;57.10;;;;;;5089507;28;43883;-72
2022/12/15 11:18:44;;;;;;;11.30;8.20;;;16.50;57.10;;;;;;5088915;28;43924;-69
2022/12/15 11:21:20;;;;;;;10.50;7.87;;;16.50;57.00;;;;;;5086367;28;44026;-73
2022/12/15 11:23:52;;;;;;;9.53;7.83;;;16.40;57.00;;;;;;5082107;28;45283;-70
2022/12/15 11:26:40;;;;;;;11.13;7.63;;;16.50;57.00;;;;;;5089721;28;43540;-72
2022/12/15 11:29:17;;;;;;;10.17;7.47;;;16.60;56.90;;;;;;5089262;28;43933;-68
2022/12/15 11:31:46;;;;;;;10.73;7.63;;;16.60;56.70;;;;;;5085771;28;43452;-71
2022/12/15 11:34:36;;;;;;;11.03;7.30;;;16.60;56.80;;;;;;5086336;28;43477;-70
2022/12/15 11:37:22;;;;;;;12.37;7.77;;;16.60;56.80;;;;;;5086610;28;43578;-69
2022/12/15 11:40:00;;;;;;;10.10;7.63;;;16.60;57.00;;;;;;5085045;28;43815;-72
2022/12/15 11:42:34;;;;;;;9.20;6.63;;;16.50;57.00;;;;;;5086832;28;43482;-70
2022/12/15 11:45:06;;;;;;;8.97;7.50;;;16.60;57.10;;;;;;5086799;28;43466;-70
2022/12/15 11:47:39;;;;;;;9.07;6.93;;;16.50;57.00;;;;;;5085547;28;43576;-71
2022/12/15 11:50:20;;;;;;;8.77;7.10;;;16.50;57.00;;;;;;5082979;28;44019;-71
2022/12/15 11:53:02;;;;;;;7.57;6.83;;;16.50;57.20;;;;;;5084781;27;43494;-73
2022/12/15 11:55:37;;;;;;;7.63;6.87;;;16.50;57.20;;;;;;5084961;28;44440;-69
2022/12/15 11:58:36;;;;;;;8.80;6.90;;;16.50;57.30;;;;;;5085175;28;43481;-70
2022/12/15 12:01:10;;;;;;;8.50;6.70;;;16.50;57.40;;;;;;5085074;28;45406;-71
2022/12/15 12:03:40;;;;;;;10.80;6.70;;;16.50;57.50;;;;;;5085085;28;43434;-70
2022/12/15 12:06:11;;;;;;;9.33;6.30;;;16.50;57.50;;;;;;5086466;28;44019;-71
2022/12/15 12:08:56;;;;;;;7.10;6.50;;;16.50;57.60;;;;;;5086693;28;43497;-71
2022/12/15 12:11:26;;;;;;;7.53;6.50;;;16.50;57.70;;;;;;5086472;28;43892;-70
2022/12/15 12:14:04;;;;;;;6.87;5.80;;;16.50;57.70;;;;;;5085566;28;43440;-71
2022/12/15 12:16:56;;;;;;;6.27;5.73;;;16.50;57.70;;;;;;5084854;28;43449;-70
2022/12/15 12:19:25;;;;;;;7.53;6.57;;;16.60;57.60;;;;;;5068373;28;43515;-70
2022/12/15 12:21:55;;;;;;;9.77;6.37;;;16.60;57.50;;;;;;5083234;28;43972;-70
2022/12/15 12:24:25;;;;;;;7.03;6.33;;;16.60;57.50;;;;;;5081623;28;43489;-71
2022/12/15 12:26:56;;;;;;;9.03;6.30;;;16.60;57.50;;;;;;5064254;28;43527;-70
2022/12/15 12:29:28;;;;;;;9.97;6.90;;;16.60;57.60;;;;;;5064420;28;44070;-69
2022/12/15 12:32:04;;;;;;;9.17;6.97;;;16.60;57.60;;;;;;5063691;28;47123;-70
2022/12/15 12:34:35;;;;;;;8.20;6.20;;;16.60;57.80;;;;;;5065799;27;44981;-70
2022/12/15 12:37:09;;;;;;;6.93;5.97;;;16.60;57.90;;;;;;5082728;27;44037;-70
2022/12/15 12:39:37;;;;;;;7.53;6.17;;;16.60;57.80;;;;;;5065162;28;43613;-70
2022/12/15 12:42:08;;;;;;;9.20;6.67;;;16.60;57.80;;;;;;5062496;28;46102;-71
2022/12/15 12:44:37;;;;;;;8.53;6.83;;;16.60;57.70;;;;;;5083473;28;44674;-70
2022/12/15 12:47:11;;;;;;;8.40;7.23;;;16.50;57.50;;;;;;5077895;28;43833;-72
2022/12/15 12:49:41;;;;;;;8.80;6.23;;;16.60;57.60;;;;;;5088188;28;43635;-70
2022/12/15 12:52:17;;;;;;;9.53;7.00;;;16.60;57.50;;;;;;5069679;28;45653;-71
2022/12/15 12:54:51;;;;;;;7.17;6.47;;;16.60;57.50;;;;;;5083307;28;43533;-70
2022/12/15 12:57:38;;;;;;;7.87;6.47;;;16.60;57.60;;;;;;5087729;28;43471;-71
2022/12/15 13:00:20;;;;;;;7.43;6.80;;;16.50;57.70;;;;;;5067578;28;43551;-72
2022/12/15 13:03:15;;;;;;;7.10;6.53;;;16.50;57.80;;;;;;5088408;28;43888;-70
2022/12/15 13:05:44;;;;;;;8.03;6.70;;;16.50;57.90;;;;;;5082219;27;43439;-70
2022/12/15 13:08:48;;;;;;;6.50;6.00;;;16.60;57.90;;;;;;5091124;27;43495;-70
2022/12/15 13:11:57;;;;;;;6.97;6.37;;;16.60;57.60;;;;;;5085690;27;45471;-70
2022/12/15 13:14:43;;;;;;;6.67;6.07;;;16.70;57.60;;;;;;5082845;27;43565;-70
2022/12/15 13:17:16;;;;;;;6.80;6.30;;;16.60;57.70;;;;;;5084245;27;43993;-70
2022/12/15 13:20:24;;;;;;;6.50;5.93;;;16.60;57.80;;;;;;5086283;28;43403;-74
2022/12/15 13:22:52;;;;;;;7.87;6.67;;;16.60;57.90;;;;;;5065518;28;43511;-70
2022/12/15 13:25:35;;;;;;;6.77;6.17;;;16.60;57.90;;;;;;5068688;28;44169;-70
2022/12/15 13:28:25;;;;;;;6.57;5.97;;;16.60;57.90;;;;;;5085485;27;44212;-73
2022/12/15 13:31:33;;;;;;;6.97;6.27;;;16.60;57.80;;;;;;5086603;27;43473;-71
2022/12/15 13:34:16;;;;;;;7.40;6.80;;;16.50;57.70;;;;;;5024139;28;43911;-72
2022/12/15 13:36:58;;;;;;;7.23;6.63;;;16.60;57.70;;;;;;5019187;28;43946;-72
2022/12/15 13:39:48;;;;;;;6.70;6.20;;;16.50;57.80;;;;;;5049943;28;45012;-71
2022/12/15 13:42:28;;;;;;;7.33;6.50;;;16.50;57.70;;;;;;5085780;28;43515;-71
2022/12/15 13:45:55;;;;;;;7.57;6.97;;;16.60;57.90;;;;;;5066617;28;43426;-73
2022/12/15 13:48:31;;;;;;;6.23;5.70;;;16.50;57.70;;;;;;5080344;28;43856;-70
2022/12/15 13:51:04;;;;;;;6.93;6.37;;;16.50;57.80;;;;;;5086150;28;45068;-69
2022/12/15 13:53:39;;;;;;;5.90;5.53;;;16.50;57.70;;;;;;5087367;28;43932;-71
2022/12/15 13:56:25;;;;;;;6.27;5.77;;;16.50;57.80;;;;;;5087573;28;43418;-71
2022/12/15 13:58:57;;;;;;;6.33;5.83;;;16.50;57.80;;;;;;5081035;28;43974;-71
2022/12/15 14:01:26;;;;;;;6.80;6.30;;;16.50;57.80;;;;;;5086918;28;43435;-70
2022/12/15 14:04:15;;;;;;;6.03;5.50;;;16.60;57.80;;;;;;5084739;28;43487;-71
2022/12/15 14:06:46;;;;;;;6.20;5.70;;;16.50;57.70;;;;;;5086850;28;43521;-71
2022/12/15 14:09:22;;;;;;;5.70;5.30;;;16.50;57.80;;;;;;5086742;28;43844;-71
2022/12/15 14:11:50;;;;;;;6.40;6.00;;;16.50;58.00;;;;;;5087247;28;43454;-72
2022/12/15 14:14:23;;;;;;;6.00;5.60;;;16.50;58.00;;;;;;5087104;28;43410;-75
2022/12/15 14:17:00;;;;;;;5.67;5.33;;;16.60;58.00;;;;;;5082115;28;43504;-73
2022/12/15 14:19:36;;;;;;;6.00;5.60;;;16.70;57.70;;;;;;5086240;28;43869;-71
2022/12/15 14:22:21;;;;;;;5.83;5.40;;;16.70;57.50;;;;;;5086999;28;43493;-70
2022/12/15 14:25:01;;;;;;;5.80;5.40;;;16.70;57.50;;;;;;5086908;28;43937;-70
2022/12/15 14:27:30;;;;;;;6.10;5.60;;;16.70;57.50;;;;;;5068265;28;43600;-70
2022/12/15 14:30:21;;;;;;;5.17;4.87;;;16.70;57.80;;;;;;5081476;28;43766;-71
2022/12/15 14:32:51;;;;;;;6.27;5.60;;;16.70;57.60;;;;;;5086282;28;43420;-71
2022/12/15 14:35:22;;;;;;;5.70;5.30;;;16.60;57.60;;;;;;5087307;28;43437;-71
2022/12/15 14:37:51;;;;;;;5.43;5.13;;;16.60;57.60;;;;;;5086876;28;43754;-74
2022/12/15 14:40:21;;;;;;;6.30;5.70;;;16.60;57.70;;;;;;5086146;28;44913;-69
2022/12/15 14:42:55;;;;;;;5.60;5.20;;;16.60;57.80;;;;;;5067773;28;44396;-71
2022/12/15 14:45:25;;;;;;;5.37;5.07;;;16.60;58.00;;;;;;5082163;28;43890;-71
2022/12/15 14:47:54;;;;;;;5.43;5.13;;;16.60;57.90;;;;;;5086262;28;43426;-71
2022/12/15 14:50:45;;;;;;;6.33;5.87;;;16.50;57.90;;;;;;5059815;28;45319;-72
2022/12/15 14:53:15;;;;;;;5.87;5.53;;;16.60;58.00;;;;;;5083360;27;44051;-69
2022/12/15 14:55:45;;;;;;;5.53;5.23;;;16.60;58.00;;;;;;5082671;28;43488;-73
2022/12/15 14:58:24;;;;;;;5.20;4.90;;;16.50;57.90;;;;;;5062061;28;44011;-70
2022/12/15 15:00:53;;;;;;;5.50;5.10;;;16.50;58.00;;;;;;5085908;28;44062;-70
2022/12/15 15:03:23;;;;;;;5.50;5.20;;;16.50;58.20;;;;;;5086020;28;44027;-71
2022/12/15 15:05:53;;;;;;;5.40;5.10;;;16.50;58.20;;;;;;5086053;28;43404;-70
2022/12/15 15:08:29;;;;;;;4.93;4.67;;;16.60;57.90;;;;;;5067824;28;43463;-71
2022/12/15 15:11:02;;;;;;;5.40;5.00;;;16.60;57.80;;;;;;5086372;27;43889;-72
2022/12/15 15:13:35;;;;;;;5.97;5.53;;;16.60;58.40;;;;;;5082863;28;43481;-71
2022/12/15 15:16:08;;;;;;;5.50;5.20;;;16.60;57.80;;;;;;5085411;28;43480;-72
2022/12/15 15:18:36;;;;;;;5.00;4.80;;;16.60;57.90;;;;;;5082495;28;43414;-71
2022/12/15 15:21:05;;;;;;;5.33;5.03;;;16.60;57.90;;;;;;5085789;28;43915;-71
2022/12/15 15:23:33;;;;;;;5.70;5.40;;;16.60;57.90;;;;;;5067711;28;43989;-71
2022/12/15 15:26:09;;;;;;;5.93;5.57;;;16.60;57.90;;;;;;5063215;28;43587;-70
2022/12/15 15:28:37;;;;;;;5.03;4.83;;;16.60;57.90;;;;;;5081838;28;43842;-70
2022/12/15 15:31:26;;;;;;;5.43;5.13;;;16.50;57.90;;;;;;5086091;28;43938;-70